createdAt,value
2022-10-01T00:01:00.799Z,59352.03
2022-10-01T00:03:28.742Z,59381.03
2022-10-01T00:06:07.239Z,59414.16
2022-10-01T00:08:34.036Z,59345.84
2022-10-01T00:11:01.502Z,59279.56
2022-10-01T00:13:30.280Z,59194.69
2022-10-01T00:15:57.000Z,59045.63
2022-10-01T00:18:23.366Z,59120.16
2022-10-01T00:20:49.808Z,59064.25
2022-10-01T00:23:16.326Z,59302.34
2022-10-01T00:25:43.598Z,59066.31
2022-10-01T00:28:11.987Z,59000.06
2022-10-01T00:30:40.514Z,59020.78
2022-10-01T00:33:07.009Z,59043.56
2022-10-01T00:35:33.446Z,59033.19
2022-10-01T00:37:59.851Z,59045.63
2022-10-01T00:40:26.299Z,59292.00
2022-10-01T00:42:52.803Z,59182.25
2022-10-01T00:45:19.238Z,59250.59
2022-10-01T00:47:52.208Z,59029.06
2022-10-01T00:50:33.793Z,59221.59
2022-10-01T00:53:06.542Z,59018.72
2022-10-01T00:55:36.369Z,58987.66
2022-10-01T00:58:04.229Z,58973.16
2022-10-01T01:00:30.920Z,58966.94
2022-10-01T01:02:57.511Z,58950.38
2022-10-01T01:05:24.285Z,59016.63
2022-10-01T01:07:52.665Z,58962.81
2022-10-01T01:10:28.524Z,59022.84
2022-10-01T01:13:16.546Z,59029.06
2022-10-01T01:15:48.961Z,58993.88
2022-10-01T01:18:40.396Z,58954.53
2022-10-01T01:21:13.304Z,58975.22
2022-10-01T01:24:14.290Z,58966.94
2022-10-01T01:27:06.290Z,58987.66
2022-10-01T01:29:41.708Z,59008.34
2022-10-01T01:32:14.945Z,58969.03
2022-10-01T01:34:44.088Z,58937.97
2022-10-01T01:37:14.254Z,58958.66
2022-10-01T01:39:44.899Z,59381.03
2022-10-01T01:42:16.209Z,58991.78
2022-10-01T01:44:44.745Z,58958.66
2022-10-01T01:47:11.713Z,58969.03
2022-10-01T01:49:39.562Z,58962.81
2022-10-01T01:52:13.366Z,58900.69
2022-10-01T01:54:40.612Z,58966.94
2022-10-01T01:57:08.080Z,58964.88
2022-10-01T01:59:35.772Z,58977.31
2022-10-01T02:02:02.767Z,58979.38
2022-10-01T02:04:39.349Z,59020.78
2022-10-01T02:07:30.255Z,59027.00
2022-10-01T02:10:14.915Z,58995.94
2022-10-01T02:12:44.320Z,58948.31
2022-10-01T02:15:29.505Z,58952.47
2022-10-01T02:18:22.143Z,58958.66
2022-10-01T02:20:54.191Z,58973.16
2022-10-01T02:23:26.240Z,59159.50
2022-10-01T02:25:56.549Z,58942.09
2022-10-01T02:28:23.719Z,58942.09
2022-10-01T02:30:54.663Z,58894.50
2022-10-01T02:33:31.989Z,58931.75
2022-10-01T02:36:00.166Z,58931.75
2022-10-01T02:38:28.252Z,59004.22
2022-10-01T02:40:58.774Z,58942.09
2022-10-01T02:43:31.292Z,58861.38
2022-10-01T02:46:03.702Z,58902.78
2022-10-01T02:48:30.254Z,58925.53
2022-10-01T02:51:04.143Z,58919.34
2022-10-01T02:53:42.175Z,59277.50
2022-10-01T02:56:08.972Z,58886.22
2022-10-01T02:58:36.295Z,58900.69
2022-10-01T03:01:02.731Z,58933.81
2022-10-01T03:03:31.550Z,58886.22
2022-10-01T03:05:57.913Z,58913.13
2022-10-01T03:08:24.273Z,58902.78
2022-10-01T03:10:50.816Z,58900.69
2022-10-01T03:13:19.635Z,58900.69
2022-10-01T03:15:47.021Z,58952.47
2022-10-01T03:18:13.543Z,58958.66
2022-10-01T03:20:40.080Z,58917.25
2022-10-01T03:23:06.483Z,58886.22
2022-10-01T03:25:32.910Z,58950.38
2022-10-01T03:27:59.351Z,58925.53
2022-10-01T03:30:26.852Z,58896.56
2022-10-01T03:32:53.326Z,58896.56
2022-10-01T03:35:20.263Z,58867.56
2022-10-01T03:37:47.597Z,58898.63
2022-10-01T03:40:14.014Z,59153.28
2022-10-01T03:42:40.413Z,58855.16
2022-10-01T03:45:07.156Z,59002.16
2022-10-01T03:47:33.562Z,58875.84
2022-10-01T03:49:59.954Z,58855.16
2022-10-01T03:52:26.349Z,58896.56
2022-10-01T03:54:52.795Z,58925.53
2022-10-01T03:57:19.262Z,58865.50
2022-10-01T03:59:45.628Z,58886.22
2022-10-01T04:02:12.149Z,58929.69
2022-10-01T04:04:38.677Z,59116.00
2022-10-01T04:07:05.082Z,58950.38
2022-10-01T04:09:31.530Z,58867.56
2022-10-01T04:11:58.062Z,58921.41
2022-10-01T04:14:24.492Z,58958.66
2022-10-01T04:16:52.541Z,58904.84
2022-10-01T04:19:20.140Z,58933.81
2022-10-01T04:21:46.592Z,58942.09
2022-10-01T04:24:12.990Z,58950.38
2022-10-01T04:26:39.432Z,58977.31
2022-10-01T04:29:05.982Z,58962.81
2022-10-01T04:31:35.244Z,59035.28
2022-10-01T04:34:02.316Z,59020.78
2022-10-01T04:36:28.750Z,59000.06
2022-10-01T04:39:00.903Z,58977.31
2022-10-01T04:41:30.527Z,58935.91
2022-10-01T04:43:59.282Z,58975.22
2022-10-01T04:46:27.853Z,59008.34
2022-10-01T04:48:54.354Z,58987.66
2022-10-01T04:51:20.797Z,58975.22
2022-10-01T04:53:47.244Z,59041.47
2022-10-01T04:56:13.629Z,58948.31
2022-10-01T04:58:40.184Z,58998.00
2022-10-01T05:01:07.054Z,59091.16
2022-10-01T05:03:34.336Z,59033.19
2022-10-01T05:06:00.728Z,58848.94
2022-10-01T05:08:27.093Z,59033.19
2022-10-01T05:10:53.452Z,58908.97
2022-10-01T05:13:19.900Z,58964.88
2022-10-01T05:15:48.822Z,58987.66
2022-10-01T05:18:15.235Z,59024.91
2022-10-01T05:20:41.667Z,59020.78
2022-10-01T05:23:08.084Z,59234.03
2022-10-01T05:25:34.490Z,58977.31
2022-10-01T05:28:05.584Z,58933.81
2022-10-01T05:30:32.980Z,59039.41
2022-10-01T05:33:01.465Z,59035.28
2022-10-01T05:35:28.664Z,59029.06
2022-10-01T05:37:59.638Z,59008.34
2022-10-01T05:40:28.406Z,58987.66
2022-10-01T05:42:59.718Z,59060.13
2022-10-01T05:45:30.216Z,59080.81
2022-10-01T05:48:01.438Z,59045.63
2022-10-01T05:50:31.325Z,59066.31
2022-10-01T05:52:58.151Z,59087.03
2022-10-01T05:55:24.915Z,59105.66
2022-10-01T05:58:05.184Z,59103.59
2022-10-01T06:00:32.699Z,59078.75
2022-10-01T06:03:00.498Z,59138.78
2022-10-01T06:05:27.929Z,59163.63
2022-10-01T06:07:54.831Z,59128.44
2022-10-01T06:10:21.466Z,59169.84
2022-10-01T06:12:48.487Z,59138.78
2022-10-01T06:15:16.071Z,59107.72
2022-10-01T06:17:45.443Z,59157.41
2022-10-01T06:20:13.594Z,59171.91
2022-10-01T06:22:40.963Z,59159.50
2022-10-01T06:25:07.784Z,59186.41
2022-10-01T06:27:34.161Z,59182.25
2022-10-01T06:30:00.629Z,59196.75
2022-10-01T06:32:28.199Z,59331.34
2022-10-01T06:34:56.026Z,59234.03
2022-10-01T06:37:22.598Z,59292.00
2022-10-01T06:39:48.990Z,59298.22
2022-10-01T06:42:15.579Z,59227.81
2022-10-01T06:44:42.531Z,59368.59
2022-10-01T06:47:09.166Z,59296.13
2022-10-01T06:49:35.550Z,59335.47
2022-10-01T06:52:20.517Z,59258.88
2022-10-01T06:54:46.883Z,59285.78
2022-10-01T06:57:13.263Z,59296.13
2022-10-01T06:59:39.839Z,59331.34
2022-10-01T07:02:06.693Z,59265.09
2022-10-01T07:04:33.255Z,59300.28
2022-10-01T07:06:59.673Z,59443.16
2022-10-01T07:09:26.500Z,59327.19
2022-10-01T07:11:57.197Z,59352.03
2022-10-01T07:14:23.620Z,59552.88
2022-10-01T07:16:50.294Z,59542.53
2022-10-01T07:19:16.794Z,59436.94
2022-10-01T07:21:43.171Z,59360.31
2022-10-01T07:24:09.669Z,59455.56
2022-10-01T07:26:36.087Z,59426.59
2022-10-01T07:29:02.609Z,59436.94
2022-10-01T07:31:29.050Z,59443.16
2022-10-01T07:33:58.583Z,59451.44
2022-10-01T07:36:24.993Z,59455.56
2022-10-01T07:38:51.446Z,59453.50
2022-10-01T07:41:17.955Z,59517.69
2022-10-01T07:43:46.658Z,59542.53
2022-10-01T07:46:13.084Z,59546.66
2022-10-01T07:48:39.493Z,59534.25
2022-10-01T07:51:05.974Z,59575.66
2022-10-01T07:53:32.427Z,59550.81
2022-10-01T07:56:02.012Z,59612.94
2022-10-01T07:58:28.522Z,59604.66
2022-10-01T08:00:58.311Z,59662.63
2022-10-01T08:03:25.233Z,59600.50
2022-10-01T08:05:53.591Z,60004.31
2022-10-01T08:08:20.325Z,59689.53
2022-10-01T08:10:49.985Z,59739.25
2022-10-01T08:13:18.863Z,59704.03
2022-10-01T08:15:47.120Z,59675.06
2022-10-01T08:18:14.162Z,59708.19
2022-10-01T08:20:40.815Z,59925.59
2022-10-01T08:23:10.328Z,59786.88
2022-10-01T08:25:37.297Z,59782.72
2022-10-01T08:28:04.455Z,59768.22
2022-10-01T08:30:31.018Z,59807.56
2022-10-01T08:32:59.107Z,59877.97
2022-10-01T08:35:26.365Z,59869.69
2022-10-01T08:37:52.806Z,59964.97
2022-10-01T08:40:21.252Z,60016.72
2022-10-01T08:42:51.676Z,59867.63
2022-10-01T08:45:24.002Z,59931.81
2022-10-01T08:48:04.785Z,59923.53
2022-10-01T08:50:49.744Z,59960.81
2022-10-01T08:53:25.285Z,59931.81
2022-10-01T08:55:52.008Z,59979.44
2022-10-01T08:58:25.947Z,60252.81
2022-10-01T09:00:52.752Z,59977.38
2022-10-01T09:03:19.524Z,60031.22
2022-10-01T09:06:13.827Z,60047.78
2022-10-01T09:08:46.426Z,60116.13
2022-10-01T09:11:38.537Z,60105.78
2022-10-01T09:14:30.056Z,60064.34
2022-10-01T09:17:29.211Z,60018.78
2022-10-01T09:20:21.650Z,60010.50
2022-10-01T09:23:19.056Z,60072.63
2022-10-01T09:25:50.130Z,60076.78
2022-10-01T09:28:19.153Z,60213.47
2022-10-01T09:30:51.593Z,60213.47
2022-10-01T09:33:20.210Z,60250.75
2022-10-01T09:36:07.779Z,60430.91
2022-10-01T09:38:42.583Z,60118.19
2022-10-01T09:41:10.642Z,60093.34
2022-10-01T09:43:38.846Z,59944.25
2022-10-01T09:46:13.250Z,60027.06
2022-10-01T09:49:01.875Z,60035.38
2022-10-01T09:51:41.643Z,60068.50
2022-10-01T09:54:35.777Z,60120.28
2022-10-01T09:57:13.267Z,60109.91
2022-10-01T09:59:47.754Z,60045.72
2022-10-01T10:02:22.119Z,60215.53
2022-10-01T10:05:02.159Z,60167.91
2022-10-01T10:07:32.373Z,60254.88
2022-10-01T10:10:08.737Z,60370.84
2022-10-01T10:12:35.478Z,60416.41
2022-10-01T10:15:16.330Z,60329.44
2022-10-01T10:17:44.501Z,60375.00
2022-10-01T10:20:18.246Z,60741.59
2022-10-01T10:22:44.653Z,60685.66
2022-10-01T10:25:17.550Z,60772.66
2022-10-01T10:27:55.430Z,60505.47
2022-10-01T10:30:25.300Z,60780.94
2022-10-01T10:32:53.276Z,60948.72
2022-10-01T10:35:28.903Z,61286.34
2022-10-01T10:37:57.230Z,60913.50
2022-10-01T10:40:29.528Z,61060.56
2022-10-01T10:42:57.723Z,60925.94
2022-10-01T10:45:33.213Z,60751.94
2022-10-01T10:48:01.287Z,60934.22
2022-10-01T10:50:36.522Z,60870.00
2022-10-01T10:53:22.615Z,61178.63
2022-10-01T10:56:03.773Z,61334.00
2022-10-01T10:58:31.320Z,61503.88
2022-10-01T11:01:00.995Z,61302.94
2022-10-01T11:03:29.563Z,61176.56
2022-10-01T11:06:03.067Z,60847.22
2022-10-01T11:08:29.758Z,60961.13
2022-10-01T11:11:04.765Z,61201.41
2022-10-01T11:13:43.098Z,61126.84
2022-10-01T11:16:40.756Z,61056.41
2022-10-01T11:19:32.331Z,60882.44
2022-10-01T11:22:23.127Z,61234.56
2022-10-01T11:25:00.887Z,61296.72
2022-10-01T11:27:32.155Z,61271.84
2022-10-01T11:30:01.518Z,61211.78
2022-10-01T11:32:49.729Z,60998.44
2022-10-01T11:35:19.408Z,61029.50
2022-10-01T11:38:05.121Z,61128.91
2022-10-01T11:40:41.823Z,61133.06
2022-10-01T11:43:31.669Z,60981.84
2022-10-01T11:46:09.298Z,60801.66
2022-10-01T11:48:41.602Z,60592.47
2022-10-01T11:51:17.430Z,60404.00
2022-10-01T11:53:54.557Z,60209.31
2022-10-01T11:56:43.049Z,60101.63
2022-10-01T11:59:22.479Z,60058.16
2022-10-01T12:02:00.367Z,60064.34
2022-10-01T12:04:40.275Z,60116.13
2022-10-01T12:07:29.439Z,60387.41
2022-10-01T12:10:17.054Z,60524.13
2022-10-01T12:12:59.007Z,60764.38
2022-10-01T12:15:33.685Z,60749.88
2022-10-01T12:18:07.808Z,60741.59
2022-10-01T12:20:42.714Z,60946.63
2022-10-01T12:23:14.704Z,61112.34
2022-10-01T12:25:49.111Z,61147.56
2022-10-01T12:28:23.923Z,61485.22
2022-10-01T12:30:55.568Z,61779.41
2022-10-01T12:33:44.744Z,61816.69
2022-10-01T12:36:21.592Z,61588.81
2022-10-01T12:39:12.817Z,61626.09
2022-10-01T12:41:52.939Z,61876.78
2022-10-01T12:44:26.381Z,61555.66
2022-10-01T12:46:52.703Z,61302.94
2022-10-01T12:49:28.547Z,61356.78
2022-10-01T12:52:23.072Z,61700.69
2022-10-01T12:55:34.208Z,61897.50
2022-10-01T12:58:05.660Z,61713.09
2022-10-01T13:00:48.394Z,61555.66
2022-10-01T13:03:43.022Z,61615.72
2022-10-01T13:06:22.472Z,61601.22
2022-10-01T13:09:30.420Z,61468.66
2022-10-01T13:12:11.258Z,61356.78
2022-10-01T13:14:39.153Z,61539.09
2022-10-01T13:17:14.488Z,61671.66
2022-10-01T13:20:06.003Z,61880.91
2022-10-01T13:22:42.986Z,61800.13
2022-10-01T13:25:29.123Z,61978.28
2022-10-01T13:28:02.036Z,61866.41
2022-10-01T13:30:35.366Z,62079.81
2022-10-01T13:33:01.896Z,61568.09
2022-10-01T13:35:35.438Z,61402.34
2022-10-01T13:38:17.321Z,61296.72
2022-10-01T13:40:44.319Z,61133.06
2022-10-01T13:43:25.720Z,60884.50
2022-10-01T13:45:54.225Z,60828.56
2022-10-01T13:48:34.829Z,60739.50
2022-10-01T13:51:12.801Z,60706.38
2022-10-01T13:53:42.663Z,60965.28
2022-10-01T13:56:14.455Z,61058.50
2022-10-01T13:58:42.532Z,61282.22
2022-10-01T14:01:23.647Z,61284.28
2022-10-01T14:04:02.557Z,61375.44
2022-10-01T14:06:35.627Z,61514.22
2022-10-01T14:09:13.493Z,61713.09
2022-10-01T14:12:02.705Z,61752.47
2022-10-01T14:14:57.120Z,61510.09
2022-10-01T14:17:29.335Z,61650.94
2022-10-01T14:19:56.764Z,61690.31
2022-10-01T14:22:38.277Z,61831.19
2022-10-01T14:25:30.786Z,61932.72
2022-10-01T14:28:15.816Z,62177.19
2022-10-01T14:30:51.472Z,62546.03
2022-10-01T14:33:40.397Z,62264.22
2022-10-01T14:36:28.408Z,62187.56
2022-10-01T14:39:27.734Z,62359.53
2022-10-01T14:41:56.127Z,62641.34
2022-10-01T14:44:24.310Z,62610.25
2022-10-01T14:46:56.603Z,62521.16
2022-10-01T14:49:24.259Z,61827.06
2022-10-01T14:52:01.565Z,61775.25
2022-10-01T14:54:29.164Z,61849.84
2022-10-01T14:56:55.657Z,61715.19
2022-10-01T14:59:41.600Z,62073.59
2022-10-01T15:02:27.617Z,61984.50
2022-10-01T15:04:56.470Z,61999.00
2022-10-01T15:07:25.250Z,61665.44
2022-10-01T15:09:51.710Z,61735.91
2022-10-01T15:12:20.509Z,61688.25
2022-10-01T15:14:47.410Z,61783.53
2022-10-01T15:17:23.290Z,61708.97
2022-10-01T15:19:52.219Z,61744.19
2022-10-01T15:22:25.205Z,61742.09
2022-10-01T15:24:53.156Z,61947.22
2022-10-01T15:27:20.998Z,61833.25
2022-10-01T15:29:56.082Z,61586.72
2022-10-01T15:32:24.337Z,61559.81
2022-10-01T15:34:55.615Z,61597.09
2022-10-01T15:37:31.988Z,61721.38
2022-10-01T15:40:00.712Z,61711.03
2022-10-01T15:42:32.755Z,61775.25
2022-10-01T15:45:08.234Z,61450.00
2022-10-01T15:47:39.231Z,61474.88
2022-10-01T15:50:05.664Z,61476.94
2022-10-01T15:52:54.435Z,61350.56
2022-10-01T15:55:27.903Z,61255.28
2022-10-01T15:58:16.907Z,61284.28
2022-10-01T16:00:52.469Z,61269.78
2022-10-01T16:03:33.134Z,61170.34
2022-10-01T16:06:01.970Z,61122.72
2022-10-01T16:08:36.737Z,60874.16
2022-10-01T16:11:17.361Z,60799.59
2022-10-01T16:13:51.539Z,60801.66
2022-10-01T16:16:21.979Z,60722.94
2022-10-01T16:19:22.202Z,60735.38
2022-10-01T16:22:14.866Z,60664.94
2022-10-01T16:24:44.684Z,60702.22
2022-10-01T16:27:35.462Z,60731.22
2022-10-01T16:30:10.300Z,60718.81
2022-10-01T16:32:36.674Z,60679.44
2022-10-01T16:35:15.440Z,60681.53
2022-10-01T16:37:42.452Z,60590.38
2022-10-01T16:40:13.909Z,60524.13
2022-10-01T16:42:42.798Z,60435.06
2022-10-01T16:45:15.705Z,60482.69
2022-10-01T16:47:42.540Z,60441.28
2022-10-01T16:50:14.089Z,60354.28
2022-10-01T16:52:42.578Z,60372.94
2022-10-01T16:55:17.368Z,60292.16
2022-10-01T16:57:43.791Z,60288.00
2022-10-01T17:00:14.214Z,60519.97
2022-10-01T17:02:40.659Z,60161.69
2022-10-01T17:05:32.569Z,60215.53
2022-10-01T17:08:03.336Z,60211.38
2022-10-01T17:10:35.760Z,60172.03
2022-10-01T17:13:03.478Z,60155.47
2022-10-01T17:15:30.379Z,60066.44
2022-10-01T17:17:57.941Z,60066.44
2022-10-01T17:20:26.380Z,60072.63
2022-10-01T17:22:52.771Z,60062.28
2022-10-01T17:25:21.462Z,60031.22
2022-10-01T17:27:47.993Z,60041.56
2022-10-01T17:30:14.826Z,60072.63
2022-10-01T17:32:42.837Z,60031.22
2022-10-01T17:35:14.105Z,60025.00
2022-10-01T17:37:41.098Z,60308.72
2022-10-01T17:40:08.947Z,59991.88
2022-10-01T17:42:35.640Z,59969.09
2022-10-01T17:45:04.761Z,59979.44
2022-10-01T17:47:31.291Z,59933.91
2022-10-01T17:50:01.182Z,59894.53
2022-10-01T17:52:27.586Z,59915.25
2022-10-01T17:54:53.956Z,59886.25
2022-10-01T17:57:20.883Z,59851.06
2022-10-01T17:59:47.522Z,59894.53
2022-10-01T18:02:39.913Z,59786.88
2022-10-01T18:05:03.867Z,60018.78
2022-10-01T18:07:30.233Z,59770.31
2022-10-01T18:09:56.628Z,59768.22
2022-10-01T18:12:25.333Z,59730.97
2022-10-01T18:14:51.819Z,59757.88
2022-10-01T18:17:18.200Z,59730.97
2022-10-01T18:19:53.713Z,59670.91
2022-10-01T18:22:21.035Z,59697.81
2022-10-01T18:24:47.489Z,59602.59
2022-10-01T18:27:14.121Z,59610.88
2022-10-01T18:29:40.748Z,59569.44
2022-10-01T18:32:19.538Z,59548.75
2022-10-01T18:34:47.940Z,59484.56
2022-10-01T18:37:26.554Z,59449.34
2022-10-01T18:39:57.822Z,59436.94
2022-10-01T18:42:47.252Z,59478.34
2022-10-01T18:45:18.870Z,59499.06
2022-10-01T18:47:57.225Z,59434.88
2022-10-01T18:50:33.630Z,59451.44
2022-10-01T18:53:18.802Z,59459.72
2022-10-01T18:56:06.624Z,59728.88
2022-10-01T18:58:54.728Z,59468.00
2022-10-01T19:01:28.819Z,59501.13
2022-10-01T19:04:20.489Z,59557.03
2022-10-01T19:06:52.810Z,59488.69
2022-10-01T19:09:25.622Z,59513.53
2022-10-01T19:12:01.171Z,59536.31
2022-10-01T19:14:42.819Z,59542.53
2022-10-01T19:17:25.390Z,59430.72
2022-10-01T19:20:13.431Z,59331.34
2022-10-01T19:22:56.525Z,59372.75
2022-10-01T19:25:33.358Z,59428.66
2022-10-01T19:28:15.066Z,59420.38
2022-10-01T19:30:57.922Z,59381.03
2022-10-01T19:33:24.657Z,59397.59
2022-10-01T19:35:53.359Z,59376.88
2022-10-01T19:38:40.147Z,59432.78
2022-10-01T19:41:24.329Z,59422.44
2022-10-01T19:43:57.776Z,59401.72
2022-10-01T19:46:37.690Z,59418.28
2022-10-01T19:49:13.482Z,59432.78
2022-10-01T19:51:45.824Z,59389.31
2022-10-01T19:54:16.813Z,59368.59
2022-10-01T19:56:43.926Z,59364.47
2022-10-01T19:59:14.317Z,59364.47
2022-10-01T20:02:03.195Z,59378.97
2022-10-01T20:04:38.656Z,59416.22
2022-10-01T20:07:11.542Z,59368.59
2022-10-01T20:09:45.908Z,59422.44
2022-10-01T20:12:31.073Z,59478.34
2022-10-01T20:15:26.612Z,59472.13
2022-10-01T20:17:59.733Z,59532.19
2022-10-01T20:21:03.442Z,59511.47
2022-10-01T20:24:01.534Z,59509.41
2022-10-01T20:26:51.005Z,59546.66
2022-10-01T20:29:36.875Z,59573.59
2022-10-01T20:32:18.640Z,59596.38
2022-10-01T20:35:03.922Z,59594.28
2022-10-01T20:38:15.588Z,59602.59
2022-10-01T20:40:55.481Z,59575.66
2022-10-01T20:43:34.820Z,59600.50
2022-10-01T20:46:17.857Z,59509.41
2022-10-01T20:48:48.741Z,59525.97
2022-10-01T20:51:29.326Z,59561.16
2022-10-01T20:53:59.475Z,59550.81
2022-10-01T20:56:36.620Z,59536.31
2022-10-01T20:59:25.250Z,59505.25
2022-10-01T21:01:59.171Z,59588.09
2022-10-01T21:04:29.462Z,59505.25
2022-10-01T21:07:26.226Z,59538.38
2022-10-01T21:09:53.034Z,59486.63
2022-10-01T21:12:31.584Z,59474.19
2022-10-01T21:14:58.537Z,59434.88
2022-10-01T21:17:37.553Z,59457.63
2022-10-01T21:20:29.748Z,59395.53
2022-10-01T21:23:13.822Z,59505.25
2022-10-01T21:26:04.953Z,59484.56
2022-10-01T21:28:42.331Z,59542.53
2022-10-01T21:31:46.433Z,59511.47
2022-10-01T21:34:18.552Z,59523.91
2022-10-01T21:37:01.369Z,59569.44
2022-10-01T21:39:47.916Z,59575.66
2022-10-01T21:42:15.246Z,59561.16
2022-10-01T21:45:17.163Z,59683.34
2022-10-01T21:48:16.018Z,59513.53
2022-10-01T21:51:11.789Z,59567.38
2022-10-01T21:53:47.154Z,59573.59
2022-10-01T21:56:35.310Z,59567.38
2022-10-01T21:59:20.558Z,59590.16
2022-10-01T22:01:48.695Z,59569.44
2022-10-01T22:04:35.290Z,59571.53
2022-10-01T22:07:23.904Z,59608.78
2022-10-01T22:10:20.533Z,59586.00
2022-10-01T22:12:49.857Z,59617.06
2022-10-01T22:15:27.546Z,59534.25
2022-10-01T22:17:54.975Z,59573.59
2022-10-01T22:20:28.226Z,59625.34
2022-10-01T22:22:57.630Z,59569.44
2022-10-01T22:25:25.699Z,59509.41
2022-10-01T22:27:58.069Z,59573.59
2022-10-01T22:30:28.801Z,59573.59
2022-10-01T22:33:20.128Z,59536.31
2022-10-01T22:35:51.893Z,59455.56
2022-10-01T22:38:35.728Z,59476.28
2022-10-01T22:41:13.624Z,59418.28
2022-10-01T22:43:43.060Z,59598.44
2022-10-01T22:46:41.604Z,59401.72
2022-10-01T22:49:14.595Z,59372.75
2022-10-01T22:51:50.862Z,59374.81
2022-10-01T22:54:41.569Z,59364.47
2022-10-01T22:57:32.902Z,59337.53
2022-10-01T23:00:05.375Z,59374.81
2022-10-01T23:02:52.998Z,59358.25
2022-10-01T23:05:44.425Z,59374.81
2022-10-01T23:08:29.878Z,59370.69
2022-10-01T23:11:31.876Z,59368.59
2022-10-01T23:14:33.719Z,59376.88
2022-10-01T23:17:18.657Z,59327.19
2022-10-01T23:19:50.980Z,59320.97
2022-10-01T23:22:42.309Z,59397.59
2022-10-01T23:25:37.204Z,59391.38
2022-10-01T23:28:31.486Z,59335.47
2022-10-01T23:31:13.187Z,59331.34
2022-10-01T23:34:07.155Z,59372.75
2022-10-01T23:36:41.661Z,59499.06
2022-10-01T23:39:32.956Z,59360.31
2022-10-01T23:42:12.951Z,59376.88
2022-10-01T23:44:49.944Z,59434.88
2022-10-01T23:47:21.504Z,59376.88
2022-10-01T23:49:53.966Z,59327.19
2022-10-01T23:52:32.289Z,59368.59
2022-10-01T23:55:23.019Z,59407.94
2022-10-01T23:57:52.729Z,59414.16
